- বাংলা English

****   ****

TAF

TAF VGHS 260500Z 2606/2712 16010KT 4000 HZ SCT015 BKN100 TEMPO 2606/2612 17025KT 2000 RA/TSRA BKN007 FEW025CB OVC080 BECMG 2612/2614 16009KT 4000 HZ SCT015 SCT100 TEMPO 2615/2620 17025KT 2000 RA/TSRA BKN007 FEW025CB OVC080 BECMG 2620/2622 16008KT 4000 HZ SCT012 BKN100 TEMPO 2702/2710 17025KT 1500 RA/TSRA BKN007 FEW025CB OVC080=

 

TAF VGEG  260500Z 2606/2712 16008KT 5000 FEW018 SCT100 TEMPO 2613/2614 18020G30KT 1500 RA/TSRA BKN008 FEW025CB OVC080 BECMG 2615/2617 18005KT 5000 FEW016 SCT100 BECMG 2622/2624 16005KT 4000 SCT015 SCT100 BECMG 2703/2705 15003KT 4000 SCT015 BKN100=

 

TAF VGSY 260400Z 2606/2712 12004KT 5000HZ SCT015 BKN100 BECMG 2618/2620 06004KT 4000HZ SCT015 BKN100 BECMG 2623/2701 04004KT 3500HZ SCT012 BKN100 TEMPO 2606/2712 32030G40KT 1500 TSRA/RA BKN006 FEW025CB OVC080=